createdAt,value
2019-01-11T00:00:10.237Z,94259.31
2019-01-11T00:02:36.880Z,94263.88
2019-01-11T00:05:03.573Z,94267.14
2019-01-11T00:07:30.222Z,94261.85
2019-01-11T00:09:56.926Z,94275.17
2019-01-11T00:12:23.567Z,94266.00
2019-01-11T00:14:50.216Z,94271.38
2019-01-11T00:17:16.870Z,94289.05
2019-01-11T00:19:43.510Z,94294.47
2019-01-11T00:22:10.144Z,94300.16
2019-01-11T00:24:36.835Z,94309.20
2019-01-11T00:27:03.473Z,94303.48
2019-01-11T00:29:30.129Z,94325.52
2019-01-11T00:31:56.787Z,94326.02
2019-01-11T00:34:23.433Z,94324.20
2019-01-11T00:36:50.069Z,94327.77
2019-01-11T00:39:19.715Z,94337.01
2019-01-11T00:41:46.414Z,94340.19
2019-01-11T00:44:13.062Z,94356.84
2019-01-11T00:46:39.718Z,94348.64
2019-01-11T00:49:06.447Z,94363.64
2019-01-11T00:51:33.051Z,94352.06
2019-01-11T00:53:59.711Z,94358.00
2019-01-11T00:56:26.358Z,94354.84
2019-01-11T00:58:53.006Z,94363.83
2019-01-11T01:01:19.650Z,94373.43
2019-01-11T01:03:46.288Z,94368.19
2019-01-11T01:06:12.979Z,94373.22
2019-01-11T01:08:39.670Z,94379.68
2019-01-11T01:11:06.357Z,94375.49
2019-01-11T01:13:33.011Z,94389.70
2019-01-11T01:15:59.708Z,94380.67
2019-01-11T01:18:26.371Z,94384.66
2019-01-11T01:20:53.012Z,94383.62
2019-01-11T01:23:19.645Z,94400.67
2019-01-11T01:25:46.318Z,94390.70
2019-01-11T01:28:13.016Z,94398.83
2019-01-11T01:30:39.714Z,94400.52
2019-01-11T01:33:06.349Z,94385.86
2019-01-11T01:35:32.993Z,94394.88
2019-01-11T01:37:59.692Z,94395.84
2019-01-11T01:40:26.328Z,94390.84
2019-01-11T01:42:52.977Z,94391.86
2019-01-11T01:45:19.621Z,94400.66
2019-01-11T01:47:46.309Z,94397.83
2019-01-11T01:50:14.393Z,94395.73
2019-01-11T01:52:39.626Z,94406.07
2019-01-11T01:55:06.261Z,94407.28
2019-01-11T01:57:32.906Z,94412.27
2019-01-11T01:59:59.563Z,94419.04
2019-01-11T02:02:26.217Z,94416.48
2019-01-11T02:04:52.882Z,94413.70
2019-01-11T02:07:19.534Z,94411.41
2019-01-11T02:09:46.172Z,94403.15
2019-01-11T02:12:12.810Z,94408.14
2019-01-11T02:14:39.460Z,94421.94
2019-01-11T02:17:06.162Z,94426.59
2019-01-11T02:19:33.204Z,94422.88
2019-01-11T02:21:59.445Z,94431.95
2019-01-11T02:24:26.102Z,94426.55
2019-01-11T02:26:52.789Z,94438.94
2019-01-11T02:29:19.480Z,94432.39
2019-01-11T02:31:46.182Z,94438.20
2019-01-11T02:34:12.813Z,94447.11
2019-01-11T02:36:39.511Z,94420.14
2019-01-11T02:39:06.157Z,94447.11
2019-01-11T02:41:32.797Z,94450.19
2019-01-11T02:43:59.491Z,94453.30
2019-01-11T02:46:26.209Z,94457.18
2019-01-11T02:48:52.841Z,94451.73
2019-01-11T02:51:19.582Z,94457.07
2019-01-11T02:53:46.225Z,94458.88
2019-01-11T02:56:12.920Z,94469.42
2019-01-11T02:58:39.578Z,94475.73
2019-01-11T03:01:06.230Z,94467.33
2019-01-11T03:03:32.875Z,94482.09
2019-01-11T03:05:59.530Z,94475.64
2019-01-11T03:08:26.172Z,94485.55
2019-01-11T03:10:52.817Z,94488.02
2019-01-11T03:13:19.452Z,94494.60
2019-01-11T03:15:46.093Z,94489.95
2019-01-11T03:18:12.747Z,94487.77
2019-01-11T03:20:39.459Z,94496.30
2019-01-11T03:23:06.101Z,94491.08
2019-01-11T03:25:32.745Z,94496.23
2019-01-11T03:27:59.400Z,94499.69
2019-01-11T03:30:26.046Z,94500.56
2019-01-11T03:32:52.701Z,94510.28
2019-01-11T03:35:19.348Z,94512.36
2019-01-11T03:37:46.005Z,94512.50
2019-01-11T03:40:12.647Z,94518.25
2019-01-11T03:42:39.291Z,94525.88
2019-01-11T03:45:05.932Z,94523.43
2019-01-11T03:47:32.572Z,94523.28
2019-01-11T03:49:59.240Z,94522.44
2019-01-11T03:52:25.902Z,94535.61
2019-01-11T03:54:52.550Z,94534.33
2019-01-11T03:57:19.207Z,94540.86
2019-01-11T03:59:45.855Z,94534.35
2019-01-11T04:02:12.498Z,94539.34
2019-01-11T04:04:39.149Z,94547.31
2019-01-11T04:07:05.788Z,94545.44
2019-01-11T04:09:32.428Z,94545.95
2019-01-11T04:11:59.088Z,94555.73
2019-01-11T04:14:25.734Z,94561.58
2019-01-11T04:16:52.373Z,94567.39
2019-01-11T04:19:19.019Z,94570.36
2019-01-11T04:21:45.679Z,94575.16
2019-01-11T04:24:12.325Z,94583.40
2019-01-11T04:26:38.956Z,94585.96
2019-01-11T04:29:05.600Z,94593.63
2019-01-11T04:31:32.248Z,94595.95
2019-01-11T04:33:58.892Z,94606.90
2019-01-11T04:36:25.537Z,94606.45
2019-01-11T04:38:53.261Z,94608.21
2019-01-11T04:41:18.827Z,94610.45
2019-01-11T04:43:45.463Z,94612.31
2019-01-11T04:46:12.109Z,94615.73
2019-01-11T04:48:38.761Z,94616.66
2019-01-11T04:51:05.499Z,94622.22
2019-01-11T04:53:32.155Z,94618.38
2019-01-11T04:55:58.807Z,94626.77
2019-01-11T04:58:25.505Z,94632.53
2019-01-11T05:00:52.152Z,94632.30
2019-01-11T05:03:18.794Z,94637.48
2019-01-11T05:05:45.570Z,94636.38
2019-01-11T05:08:12.211Z,94636.26
2019-01-11T05:10:38.845Z,94643.64
2019-01-11T05:13:05.503Z,94647.14
2019-01-11T05:15:32.136Z,94646.33
2019-01-11T05:17:58.788Z,94648.09
2019-01-11T05:20:25.428Z,94656.13
2019-01-11T05:22:52.083Z,94659.61
2019-01-11T05:25:18.723Z,94657.96
2019-01-11T05:27:45.371Z,94654.92
2019-01-11T05:30:12.026Z,94665.11
2019-01-11T05:32:38.680Z,94658.22
2019-01-11T05:35:05.333Z,94661.95
2019-01-11T05:37:31.984Z,94664.01
2019-01-11T05:39:58.632Z,94670.52
2019-01-11T05:42:25.274Z,94676.14
2019-01-11T05:44:51.926Z,94678.36
2019-01-11T05:47:18.573Z,94675.50
2019-01-11T05:49:45.231Z,94681.89
2019-01-11T05:52:11.866Z,94682.88
2019-01-11T05:54:38.889Z,94687.02
2019-01-11T05:57:05.534Z,94693.24
2019-01-11T05:59:32.184Z,94691.48
2019-01-11T06:01:58.826Z,94683.60
2019-01-11T06:04:25.514Z,94696.02
2019-01-11T06:06:52.161Z,94697.09
2019-01-11T06:09:18.811Z,94698.30
2019-01-11T06:11:45.465Z,94697.50
2019-01-11T06:14:12.124Z,94693.50
2019-01-11T06:16:38.773Z,94707.07
2019-01-11T06:19:05.428Z,94699.55
2019-01-11T06:21:32.083Z,94707.71
2019-01-11T06:23:58.723Z,94707.39
2019-01-11T06:26:25.422Z,94698.56
2019-01-11T06:28:52.065Z,94711.50
2019-01-11T06:31:18.728Z,94718.05
2019-01-11T06:33:45.377Z,94715.47
2019-01-11T06:36:12.029Z,94712.43
2019-01-11T06:38:38.681Z,94707.05
2019-01-11T06:41:05.322Z,94713.72
2019-01-11T06:43:31.971Z,94717.27
2019-01-11T06:45:58.640Z,94726.57
2019-01-11T06:48:25.292Z,94731.20
2019-01-11T06:50:51.945Z,94736.92
2019-01-11T06:53:18.598Z,94732.86
2019-01-11T06:55:45.249Z,94732.99
2019-01-11T06:58:11.883Z,94731.71
2019-01-11T07:00:38.930Z,94740.33
2019-01-11T07:03:07.054Z,94737.59
2019-01-11T07:05:32.237Z,94728.98
2019-01-11T07:07:58.881Z,94737.31
2019-01-11T07:10:28.483Z,94746.30
2019-01-11T07:12:55.134Z,94745.02
2019-01-11T07:15:21.776Z,94742.50
2019-01-11T07:17:48.450Z,94730.73
2019-01-11T07:20:15.197Z,94731.97
2019-01-11T07:22:41.984Z,94735.74
2019-01-11T07:25:08.654Z,94736.51
2019-01-11T07:27:35.313Z,94745.78
2019-01-11T07:30:02.096Z,94736.70
2019-01-11T07:32:28.788Z,94747.10
2019-01-11T07:34:55.429Z,94740.13
2019-01-11T07:37:22.082Z,94745.86
2019-01-11T07:39:48.862Z,94744.23
2019-01-11T07:42:15.592Z,94752.34
2019-01-11T07:44:42.346Z,94749.83
2019-01-11T07:47:08.964Z,94762.38
2019-01-11T07:49:35.633Z,94764.98
2019-01-11T07:52:02.303Z,94759.95
2019-01-11T07:54:28.953Z,94764.89
2019-01-11T07:56:55.629Z,94760.22
2019-01-11T07:59:22.285Z,94768.91
2019-01-11T08:01:49.011Z,94773.17
2019-01-11T08:04:15.663Z,94778.48
2019-01-11T08:06:42.330Z,94779.62
2019-01-11T08:09:08.979Z,94779.92
2019-01-11T08:11:36.683Z,94790.40
2019-01-11T08:14:03.328Z,94782.42
2019-01-11T08:16:29.976Z,94787.84
2019-01-11T08:18:56.917Z,94788.25
2019-01-11T08:21:23.690Z,94795.03
2019-01-11T08:23:50.339Z,94794.58
2019-01-11T08:26:16.996Z,94792.70
2019-01-11T08:28:46.764Z,94797.45
2019-01-11T08:31:13.463Z,94792.36
2019-01-11T08:33:40.174Z,94792.55
2019-01-11T08:36:07.895Z,94801.51
2019-01-11T08:38:34.536Z,94804.38
2019-01-11T08:41:01.198Z,94803.96
2019-01-11T08:43:27.921Z,94804.66
2019-01-11T08:45:55.749Z,94803.28
2019-01-11T08:48:22.484Z,94805.94
2019-01-11T08:50:49.146Z,94800.70
2019-01-11T08:53:15.785Z,94808.50
2019-01-11T08:55:42.604Z,94818.19
2019-01-11T08:58:09.294Z,94812.02
2019-01-11T09:00:35.945Z,94819.88
2019-01-11T09:03:02.722Z,94819.13
2019-01-11T09:05:29.442Z,94823.54
2019-01-11T09:07:58.666Z,94813.22
2019-01-11T09:10:25.366Z,94824.17
2019-01-11T09:12:52.007Z,94811.71
2019-01-11T09:15:18.693Z,94823.55
2019-01-11T09:17:45.420Z,94817.73
2019-01-11T09:20:12.097Z,94818.83
2019-01-11T09:22:38.754Z,94818.76
2019-01-11T09:25:05.396Z,94810.77
2019-01-11T09:27:32.188Z,94814.41
2019-01-11T09:29:58.832Z,94806.92
2019-01-11T09:32:25.571Z,94804.36
2019-01-11T09:34:52.229Z,94812.52
2019-01-11T09:37:18.899Z,94811.95
2019-01-11T09:39:48.371Z,94817.22
2019-01-11T09:42:15.007Z,94810.33
2019-01-11T09:44:41.724Z,94818.08
2019-01-11T09:47:08.449Z,94821.93
2019-01-11T09:49:35.284Z,94827.84
2019-01-11T09:52:01.935Z,94826.86
2019-01-11T09:54:28.575Z,94828.12
2019-01-11T09:56:55.320Z,94828.42
2019-01-11T09:59:21.963Z,94818.95
2019-01-11T10:01:48.680Z,94822.52
2019-01-11T10:04:15.414Z,94807.88
2019-01-11T10:06:42.068Z,94823.51
2019-01-11T10:09:08.739Z,94810.67
2019-01-11T10:11:35.383Z,94820.42
2019-01-11T10:14:02.070Z,94815.67
2019-01-11T10:16:28.722Z,94820.05
2019-01-11T10:18:55.377Z,94817.50
2019-01-11T10:21:23.196Z,94826.36
2019-01-11T10:23:48.729Z,94823.79
2019-01-11T10:26:15.384Z,94815.84
2019-01-11T10:28:42.099Z,94826.05
2019-01-11T10:31:08.755Z,94819.80
2019-01-11T10:33:36.326Z,94830.12
2019-01-11T10:36:02.138Z,94815.92
2019-01-11T10:38:28.855Z,94829.94
2019-01-11T10:40:55.516Z,94826.29
2019-01-11T10:43:22.163Z,94817.09
2019-01-11T10:45:48.814Z,94825.94
2019-01-11T10:48:15.458Z,94832.22
2019-01-11T10:50:42.144Z,94818.30
2019-01-11T10:53:08.857Z,94824.40
2019-01-11T10:55:35.523Z,94832.22
2019-01-11T10:58:02.161Z,94826.91
2019-01-11T11:00:28.825Z,94828.96
2019-01-11T11:02:55.514Z,94825.37
2019-01-11T11:05:22.176Z,94825.98
2019-01-11T11:07:50.127Z,94827.04
2019-01-11T11:10:15.519Z,94831.22
2019-01-11T11:12:42.171Z,94826.88
2019-01-11T11:15:08.840Z,94834.57
2019-01-11T11:17:35.484Z,94836.61
2019-01-11T11:20:02.137Z,94835.14
2019-01-11T11:22:28.846Z,94841.13
2019-01-11T11:24:55.500Z,94845.50
2019-01-11T11:27:22.151Z,94851.33
2019-01-11T11:29:49.233Z,94844.33
2019-01-11T11:32:15.885Z,94853.18
2019-01-11T11:34:42.545Z,94852.43
2019-01-11T11:37:09.799Z,94858.39
2019-01-11T11:39:36.500Z,94848.47
2019-01-11T11:42:03.148Z,94858.72
2019-01-11T11:44:29.841Z,94858.41
2019-01-11T11:46:56.487Z,94861.36
2019-01-11T11:49:23.185Z,94867.61
2019-01-11T11:51:49.831Z,94864.71
2019-01-11T11:54:16.498Z,94869.12
2019-01-11T11:56:43.163Z,94866.33
2019-01-11T11:59:09.857Z,94872.55
2019-01-11T12:01:36.917Z,94881.94
2019-01-11T12:04:03.707Z,94875.91
2019-01-11T12:06:30.385Z,94876.17
2019-01-11T12:08:57.101Z,94865.24
2019-01-11T12:11:23.854Z,94879.71
2019-01-11T12:13:50.539Z,94890.64
2019-01-11T12:16:17.212Z,94893.23
2019-01-11T12:18:43.863Z,94887.36
2019-01-11T12:21:10.553Z,94894.67
2019-01-11T12:23:38.299Z,94896.97
2019-01-11T12:26:04.968Z,94900.24
2019-01-11T12:28:34.955Z,94899.79
2019-01-11T12:31:01.764Z,94910.69
2019-01-11T12:33:28.467Z,94908.83
2019-01-11T12:35:55.136Z,94888.82
2019-01-11T12:38:21.787Z,94895.39
2019-01-11T12:40:48.435Z,94898.36
2019-01-11T12:43:15.157Z,94901.60
2019-01-11T12:45:42.196Z,94905.87
2019-01-11T12:48:08.848Z,94905.22
2019-01-11T12:50:35.625Z,94910.14
2019-01-11T12:53:02.287Z,94913.27
2019-01-11T12:55:28.996Z,94910.56
2019-01-11T12:57:55.672Z,94912.29
2019-01-11T13:00:22.392Z,94913.44
2019-01-11T13:02:49.038Z,94904.95
2019-01-11T13:05:15.748Z,94919.86
2019-01-11T13:07:42.457Z,94912.80
2019-01-11T13:10:09.463Z,94920.17
2019-01-11T13:12:36.419Z,94919.42
2019-01-11T13:15:03.198Z,94921.72
2019-01-11T13:17:29.895Z,94923.80
2019-01-11T13:19:56.566Z,94922.09
2019-01-11T13:22:23.213Z,94927.03
2019-01-11T13:24:49.864Z,94913.80
2019-01-11T13:27:18.011Z,94918.33
2019-01-11T13:29:43.237Z,94923.66
2019-01-11T13:32:09.908Z,94930.39
2019-01-11T13:34:36.582Z,94930.41
2019-01-11T13:37:03.655Z,94924.33
2019-01-11T13:39:30.488Z,94928.06
2019-01-11T13:41:57.145Z,94937.96
2019-01-11T13:44:23.799Z,94941.53
2019-01-11T13:46:50.475Z,94943.42
2019-01-11T13:49:17.132Z,94937.80
2019-01-11T13:51:43.794Z,94937.22
2019-01-11T13:54:10.489Z,94944.34
2019-01-11T13:56:37.146Z,94944.78
2019-01-11T13:59:03.791Z,94946.56
2019-01-11T14:01:30.481Z,94938.59
2019-01-11T14:03:57.165Z,94948.27
2019-01-11T14:06:23.866Z,94946.09
2019-01-11T14:08:50.543Z,94944.34
2019-01-11T14:11:17.297Z,94942.86
2019-01-11T14:13:44.534Z,94942.58
2019-01-11T14:16:11.184Z,94955.28
2019-01-11T14:18:37.851Z,94948.91
2019-01-11T14:21:04.504Z,94947.64
2019-01-11T14:23:31.215Z,94948.91
2019-01-11T14:25:57.866Z,94954.97
2019-01-11T14:28:24.569Z,94949.95
2019-01-11T14:30:51.302Z,94950.97
2019-01-11T14:33:17.941Z,94949.97
2019-01-11T14:35:44.602Z,94948.53
2019-01-11T14:38:11.255Z,94932.53
2019-01-11T14:40:37.891Z,94941.43
2019-01-11T14:43:04.598Z,94944.05
2019-01-11T14:45:31.241Z,94943.75
2019-01-11T14:47:57.973Z,94949.43
2019-01-11T14:50:24.645Z,94952.25
2019-01-11T14:52:51.317Z,94957.23
2019-01-11T14:55:17.967Z,94957.14
2019-01-11T14:57:44.721Z,94957.41
2019-01-11T15:00:11.428Z,94957.20
2019-01-11T15:02:38.073Z,94955.33
2019-01-11T15:05:04.718Z,94958.62
2019-01-11T15:07:31.355Z,94973.05
2019-01-11T15:09:58.055Z,94971.16
2019-01-11T15:12:24.710Z,94977.17
2019-01-11T15:14:51.459Z,94978.50
2019-01-11T15:17:18.233Z,94981.09
2019-01-11T15:19:44.993Z,94981.58
2019-01-11T15:22:11.645Z,94987.09
2019-01-11T15:24:38.324Z,94984.30
2019-01-11T15:27:04.965Z,94997.20
2019-01-11T15:29:31.700Z,94984.66
2019-01-11T15:31:58.346Z,94995.41
2019-01-11T15:34:25.005Z,94995.31
2019-01-11T15:36:51.646Z,94996.13
2019-01-11T15:39:18.449Z,94991.95
2019-01-11T15:41:45.104Z,95006.03
2019-01-11T15:44:11.762Z,95001.47
2019-01-11T15:46:38.406Z,95001.36
2019-01-11T15:49:05.056Z,94998.95
2019-01-11T15:51:31.726Z,95005.77
2019-01-11T15:53:58.427Z,95005.12
2019-01-11T15:56:25.072Z,95009.19
2019-01-11T15:58:51.716Z,95005.59
2019-01-11T16:01:18.371Z,95014.17
2019-01-11T16:03:45.039Z,95018.26
2019-01-11T16:06:11.734Z,95016.27
2019-01-11T16:08:38.393Z,95019.38
2019-01-11T16:11:05.063Z,95016.73
2019-01-11T16:13:31.702Z,95011.36
2019-01-11T16:15:58.472Z,95016.20
2019-01-11T16:18:25.121Z,95015.04
2019-01-11T16:20:51.777Z,95012.84
2019-01-11T16:23:18.539Z,95005.44
2019-01-11T16:25:45.252Z,95017.91
2019-01-11T16:28:11.904Z,95020.92
2019-01-11T16:30:38.554Z,95027.94
2019-01-11T16:33:05.205Z,95023.27
2019-01-11T16:35:31.846Z,95027.70
2019-01-11T16:37:58.503Z,95030.36
2019-01-11T16:40:27.228Z,95031.23
2019-01-11T16:42:55.369Z,95038.06
2019-01-11T16:45:20.531Z,95035.02
2019-01-11T16:47:50.185Z,95044.58
2019-01-11T16:50:16.839Z,95042.44
2019-01-11T16:52:46.556Z,95043.75
2019-01-11T16:55:10.171Z,95048.23
2019-01-11T16:57:36.835Z,95048.81
2019-01-11T17:00:03.483Z,95046.77
2019-01-11T17:02:36.510Z,95045.13
2019-01-11T17:04:56.823Z,95043.48
2019-01-11T17:07:23.479Z,95042.09
2019-01-11T17:09:50.146Z,95055.63
2019-01-11T17:12:16.788Z,95061.98
2019-01-11T17:14:43.519Z,95066.48
2019-01-11T17:17:10.201Z,95065.19
2019-01-11T17:19:36.893Z,95060.38
2019-01-11T17:22:03.541Z,95066.52
2019-01-11T17:24:30.186Z,95065.33
2019-01-11T17:26:56.928Z,95057.64
2019-01-11T17:29:23.547Z,95058.28
2019-01-11T17:31:50.215Z,95067.20
2019-01-11T17:34:16.870Z,95075.72
2019-01-11T17:36:43.532Z,95084.47
2019-01-11T17:39:10.236Z,95074.81
2019-01-11T17:41:36.931Z,95075.50
2019-01-11T17:44:03.571Z,95080.64
2019-01-11T17:46:30.221Z,95076.72
2019-01-11T17:48:56.912Z,95087.50
2019-01-11T17:51:23.590Z,95086.04
2019-01-11T17:53:50.414Z,95087.43
2019-01-11T17:56:17.055Z,95080.94
2019-01-11T17:58:43.706Z,95080.47
2019-01-11T18:01:10.359Z,95077.76
2019-01-11T18:03:37.069Z,95081.39
2019-01-11T18:06:03.785Z,95078.20
2019-01-11T18:08:30.440Z,95075.56
2019-01-11T18:10:57.104Z,95073.03
2019-01-11T18:13:23.784Z,95064.23
2019-01-11T18:15:50.438Z,95071.66
2019-01-11T18:18:17.164Z,95075.00
2019-01-11T18:20:43.804Z,95086.45
2019-01-11T18:23:10.488Z,95082.40
2019-01-11T18:25:37.205Z,95079.11
2019-01-11T18:28:03.893Z,95086.33
2019-01-11T18:30:30.548Z,95079.19
2019-01-11T18:32:57.194Z,95084.58
2019-01-11T18:35:23.894Z,95085.56
2019-01-11T18:37:50.557Z,95079.88
2019-01-11T18:40:17.208Z,95083.73
2019-01-11T18:42:43.880Z,95090.02
2019-01-11T18:45:10.536Z,95088.69
2019-01-11T18:47:37.244Z,95092.03
2019-01-11T18:50:03.995Z,95095.87
2019-01-11T18:52:30.631Z,95099.83
2019-01-11T18:54:57.297Z,95100.66
2019-01-11T18:57:23.949Z,95100.81
2019-01-11T18:59:50.598Z,95103.21
2019-01-11T19:02:17.249Z,95107.69
2019-01-11T19:04:43.977Z,95104.05
2019-01-11T19:07:10.544Z,95103.38
2019-01-11T19:09:37.355Z,95099.30
2019-01-11T19:12:05.225Z,95094.12
2019-01-11T19:14:30.672Z,95105.78
2019-01-11T19:16:57.316Z,95108.00
2019-01-11T19:19:23.957Z,95111.12
2019-01-11T19:21:50.691Z,95110.48
2019-01-11T19:24:17.328Z,95114.02
2019-01-11T19:26:44.049Z,95116.37
2019-01-11T19:29:10.682Z,95116.92
2019-01-11T19:31:37.333Z,95120.63
2019-01-11T19:34:04.005Z,95120.30
2019-01-11T19:36:30.721Z,95113.77
2019-01-11T19:38:57.360Z,95113.70
2019-01-11T19:41:24.008Z,95112.58
2019-01-11T19:43:50.718Z,95114.02
2019-01-11T19:46:17.376Z,95111.97
2019-01-11T19:48:44.087Z,95107.92
2019-01-11T19:51:12.151Z,95102.72
2019-01-11T19:53:37.394Z,95105.17
2019-01-11T19:56:04.120Z,95102.48
2019-01-11T19:58:30.770Z,95102.61
2019-01-11T20:00:57.488Z,95099.52
2019-01-11T20:03:24.118Z,95100.34
2019-01-11T20:05:50.783Z,95101.80
2019-01-11T20:08:17.453Z,95093.20
2019-01-11T20:10:44.156Z,95095.37
2019-01-11T20:13:10.810Z,95096.78
2019-01-11T20:15:37.452Z,95091.91
2019-01-11T20:18:04.179Z,95100.02
2019-01-11T20:20:30.794Z,95087.34
2019-01-11T20:23:02.177Z,95091.17
2019-01-11T20:25:24.147Z,95093.86
2019-01-11T20:27:50.797Z,95086.58
2019-01-11T20:30:17.444Z,95092.12
2019-01-11T20:32:44.101Z,95087.39
2019-01-11T20:35:11.073Z,95085.53
2019-01-11T20:37:37.716Z,95088.39
2019-01-11T20:40:04.386Z,95088.52
2019-01-11T20:42:31.029Z,95089.16
2019-01-11T20:44:57.905Z,95086.97
2019-01-11T20:47:24.605Z,95087.56
2019-01-11T20:49:51.250Z,95089.56
2019-01-11T20:52:17.949Z,95080.92
2019-01-11T20:54:44.587Z,95092.42
2019-01-11T20:57:11.249Z,95084.55
2019-01-11T20:59:37.889Z,95086.88
2019-01-11T21:02:04.540Z,95091.66
2019-01-11T21:04:31.186Z,95088.03
2019-01-11T21:06:57.880Z,95090.82
2019-01-11T21:09:26.154Z,95086.88
2019-01-11T21:11:51.165Z,95088.09
2019-01-11T21:14:17.805Z,95094.22
2019-01-11T21:16:44.499Z,95089.92
2019-01-11T21:19:11.140Z,95077.87
2019-01-11T21:21:37.780Z,95085.77
2019-01-11T21:24:04.423Z,95075.76
2019-01-11T21:26:31.081Z,95064.89
2019-01-11T21:28:57.728Z,95063.50
2019-01-11T21:31:27.528Z,95062.44
2019-01-11T21:33:54.168Z,95063.59
2019-01-11T21:36:20.813Z,95063.00
2019-01-11T21:38:47.453Z,95059.67
2019-01-11T21:41:14.153Z,95066.53
2019-01-11T21:43:40.868Z,95054.48
2019-01-11T21:46:07.511Z,95051.07
2019-01-11T21:48:34.172Z,95058.64
2019-01-11T21:51:00.909Z,95066.30
2019-01-11T21:53:27.580Z,95066.09
2019-01-11T21:55:54.308Z,95063.47
2019-01-11T21:58:20.969Z,95066.39
2019-01-11T22:00:49.769Z,95065.71
2019-01-11T22:03:14.368Z,95068.61
2019-01-11T22:05:41.113Z,95067.59
2019-01-11T22:08:07.841Z,95065.71
2019-01-11T22:10:34.526Z,95072.48
2019-01-11T22:13:01.193Z,95071.84
2019-01-11T22:15:27.922Z,95069.02
2019-01-11T22:17:54.591Z,95060.58
2019-01-11T22:20:21.258Z,95057.67
2019-01-11T22:22:48.023Z,95058.29
2019-01-11T22:25:14.771Z,95069.08
2019-01-11T22:27:41.499Z,95074.58
2019-01-11T22:30:08.169Z,95085.44
2019-01-11T22:32:36.191Z,95074.31
2019-01-11T22:35:01.533Z,95083.55
2019-01-11T22:37:28.365Z,95082.11
2019-01-11T22:39:55.087Z,95085.66
2019-01-11T22:42:21.804Z,95094.25
2019-01-11T22:44:48.478Z,95097.19
2019-01-11T22:47:15.217Z,95087.27
2019-01-11T22:49:41.901Z,95083.46
2019-01-11T22:52:08.565Z,95067.98
2019-01-11T22:54:35.267Z,95071.09
2019-01-11T22:57:01.974Z,95068.41
2019-01-11T22:59:28.708Z,95070.76
2019-01-11T23:01:55.380Z,95074.88
2019-01-11T23:04:22.170Z,95070.83
2019-01-11T23:06:48.850Z,95073.23
2019-01-11T23:09:15.529Z,95068.19
2019-01-11T23:11:42.204Z,95061.75
2019-01-11T23:14:08.929Z,95065.11
2019-01-11T23:16:35.601Z,95059.58
2019-01-11T23:19:02.425Z,95053.52
2019-01-11T23:21:29.096Z,95056.98
2019-01-11T23:23:57.463Z,95063.14
2019-01-11T23:26:22.501Z,95052.89
2019-01-11T23:28:49.182Z,95049.73
2019-01-11T23:31:15.868Z,95049.30
2019-01-11T23:33:42.557Z,95048.11
2019-01-11T23:36:09.290Z,95036.11
2019-01-11T23:38:36.034Z,95029.52
2019-01-11T23:41:02.705Z,95025.88
2019-01-11T23:43:29.379Z,95024.60
2019-01-11T23:45:56.114Z,95020.50
2019-01-11T23:48:22.789Z,95021.00
2019-01-11T23:50:49.632Z,95025.55
2019-01-11T23:53:16.304Z,95032.45
2019-01-11T23:55:42.973Z,95031.94
2019-01-11T23:58:09.704Z,95026.77
